Time;durP1;ratioP1;P1;durP2;ratioP2;P2;SDS_P1;SDS_P2;PMS_P1;PMS_P2;Temp;Humidity;BMP_temperature;BMP_pressure;BME280_temperature;BME280_humidity;BME280_pressure;Samples;Min_cycle;Max_cycle;Signal;HPM_P1;HPM_P2
2023/05/23 00:00:28;;;;;;;33.78;22.67;;;;;;;14.18;100.00;101851.72;5035231;28;20025;-70
2023/05/23 00:02:53;;;;;;;37.20;24.05;;;;;;;14.11;100.00;101831.78;5034582;28;20412;-70
2023/05/23 00:05:18;;;;;;;36.25;23.85;;;;;;;14.14;100.00;101840.44;5034529;28;20025;-70
2023/05/23 00:07:44;;;;;;;31.80;23.15;;;;;;;14.18;100.00;101844.69;5034699;28;20036;-70
2023/05/23 00:10:10;;;;;;;34.25;21.98;;;;;;;14.25;100.00;101843.66;5035010;28;20084;-70
2023/05/23 00:12:38;;;;;;;32.55;22.30;;;;;;;14.28;100.00;101827.84;5020654;28;20028;-70
2023/05/23 00:15:07;;;;;;;33.08;20.90;;;;;;;14.37;100.00;101839.91;5034951;28;20025;-70
2023/05/23 00:17:33;;;;;;;33.22;22.92;;;;;;;14.40;100.00;101838.97;5034517;28;20026;-70
2023/05/23 00:19:58;;;;;;;29.77;22.20;;;;;;;14.42;100.00;101840.66;5034097;28;20037;-70
2023/05/23 00:22:23;;;;;;;31.63;21.65;;;;;;;14.43;100.00;101844.16;5034938;28;20132;-70
2023/05/23 00:24:49;;;;;;;31.17;21.33;;;;;;;14.40;100.00;101852.94;5034525;28;20017;-71
2023/05/23 00:27:14;;;;;;;27.90;20.48;;;;;;;14.42;100.00;101850.28;5033880;28;20409;-70
2023/05/23 00:29:40;;;;;;;27.55;19.42;;;;;;;14.35;100.00;101844.31;5034262;28;20029;-70
2023/05/23 00:32:05;;;;;;;26.60;18.45;;;;;;;14.28;100.00;101854.06;5034942;28;20096;-70
2023/05/23 00:34:30;;;;;;;24.65;18.27;;;;;;;14.22;100.00;101846.38;5033341;28;20033;-70
2023/05/23 00:36:57;;;;;;;22.33;17.67;;;;;;;14.34;100.00;101858.34;5039806;28;22073;-70
2023/05/23 00:39:22;;;;;;;23.10;17.55;;;;;;;14.36;100.00;101853.06;5036052;28;20477;-70
2023/05/23 00:41:48;;;;;;;21.55;16.05;;;;;;;14.33;100.00;101855.75;5034277;28;20024;-70
2023/05/23 00:44:14;;;;;;;24.98;16.67;;;;;;;14.29;100.00;101853.19;5034543;28;20017;-71
2023/05/23 00:46:42;;;;;;;23.55;16.65;;;;;;;14.31;100.00;101858.41;5034241;28;20091;-70
2023/05/23 00:49:08;;;;;;;20.83;15.77;;;;;;;14.32;100.00;101857.50;5032945;28;20033;-70
2023/05/23 00:51:33;;;;;;;20.23;16.20;;;;;;;14.28;100.00;101864.56;5034272;28;20040;-70
2023/05/23 00:54:00;;;;;;;19.10;15.75;;;;;;;14.24;100.00;101856.81;5034111;28;20030;-70
2023/05/23 00:56:26;;;;;;;19.92;15.38;;;;;;;14.19;100.00;101853.41;5047647;28;20036;-70
2023/05/23 00:58:53;;;;;;;21.40;15.57;;;;;;;14.25;100.00;101869.88;5031208;28;20021;-70
2023/05/23 01:01:18;;;;;;;22.13;16.90;;;;;;;14.20;100.00;101853.41;5029649;28;20024;-70
2023/05/23 01:03:44;;;;;;;23.35;15.95;;;;;;;14.23;100.00;101866.44;5032966;28;20381;-70
2023/05/23 01:06:10;;;;;;;24.23;16.67;;;;;;;14.20;100.00;101871.75;5032191;28;20084;-70
2023/05/23 01:08:36;;;;;;;25.75;16.73;;;;;;;14.26;100.00;101870.78;5030541;28;20484;-70
2023/05/23 01:11:13;;;;;;;24.33;17.20;;;;;;;14.19;100.00;101875.28;5031655;28;20037;-70
2023/05/23 01:13:50;;;;;;;21.80;17.52;;;;;;;14.16;100.00;101862.25;5031762;28;20025;-70
2023/05/23 01:16:28;;;;;;;23.17;15.77;;;;;;;14.19;100.00;101875.28;5031551;28;20088;-70
2023/05/23 01:19:01;;;;;;;24.20;16.27;;;;;;;14.18;100.00;101878.78;5031484;28;20163;-70
2023/05/23 01:21:27;;;;;;;28.45;17.48;;;;;;;14.16;100.00;101879.72;5033064;28;20022;-70
2023/05/23 01:24:15;;;;;;;28.42;17.95;;;;;;;14.09;100.00;101871.13;5032597;28;20464;-70
2023/05/23 01:27:15;;;;;;;26.23;16.52;;;;;;;14.07;100.00;101877.31;5033252;28;20500;-70
2023/05/23 01:29:45;;;;;;;22.88;15.20;;;;;;;14.04;100.00;101876.47;5019328;28;20388;-70
2023/05/23 01:32:12;;;;;;;23.63;15.32;;;;;;;14.04;100.00;101896.59;5033588;28;20028;-70
2023/05/23 01:34:40;;;;;;;20.33;13.93;;;;;;;13.93;100.00;101882.81;5030936;28;20028;-71
2023/05/23 01:37:10;;;;;;;21.63;14.35;;;;;;;13.91;100.00;101892.50;5032399;28;20029;-70
2023/05/23 01:39:36;;;;;;;22.88;14.35;;;;;;;13.90;100.00;101893.41;5033579;28;20017;-70
2023/05/23 01:42:02;;;;;;;22.60;14.35;;;;;;;13.79;100.00;101876.13;5033157;28;20021;-70
2023/05/23 01:44:28;;;;;;;18.45;13.40;;;;;;;13.91;100.00;101900.38;5031985;28;20503;-70
2023/05/23 01:46:53;;;;;;;23.90;15.43;;;;;;;13.94;100.00;101895.06;5031959;28;20040;-70
2023/05/23 01:49:20;;;;;;;24.38;15.23;;;;;;;13.91;100.00;101901.22;5033453;28;20031;-70
2023/05/23 01:51:46;;;;;;;26.70;15.57;;;;;;;13.77;100.00;101870.06;5032197;28;20040;-70
2023/05/23 01:54:15;;;;;;;25.55;15.85;;;;;;;13.89;100.00;101892.50;5033331;28;20029;-70
2023/05/23 01:56:41;;;;;;;28.05;17.88;;;;;;;13.89;100.00;101899.53;5032766;28;20029;-71
2023/05/23 01:59:07;;;;;;;26.08;15.80;;;;;;;13.88;100.00;101890.78;5018852;28;20030;-70
2023/05/23 02:01:33;;;;;;;31.42;18.27;;;;;;;13.85;100.00;101892.63;5032760;28;20029;-70
2023/05/23 02:03:58;;;;;;;27.30;18.15;;;;;;;13.92;100.00;101902.94;5032726;28;20063;-71
2023/05/23 02:06:23;;;;;;;24.98;17.15;;;;;;;13.94;100.00;101900.31;5031275;28;20354;-70
2023/05/23 02:08:49;;;;;;;25.88;17.27;;;;;;;13.96;100.00;101908.97;5033971;28;20052;-70
2023/05/23 02:11:14;;;;;;;31.70;19.20;;;;;;;13.89;100.00;101902.13;5032795;28;20100;-70
2023/05/23 02:13:40;;;;;;;30.60;18.05;;;;;;;13.90;100.00;101907.38;5031772;28;20025;-70
2023/05/23 02:16:05;;;;;;;31.42;18.50;;;;;;;13.87;100.00;101902.19;5032736;28;20018;-70
2023/05/23 02:18:30;;;;;;;35.85;19.17;;;;;;;13.83;100.00;101913.59;5032053;28;20478;-70
2023/05/23 02:20:56;;;;;;;33.05;17.95;;;;;;;13.86;100.00;101917.94;5032260;28;20068;-70
2023/05/23 02:23:21;;;;;;;30.38;18.45;;;;;;;13.81;100.00;101908.41;5032558;28;20026;-70
2023/05/23 02:25:47;;;;;;;29.20;18.50;;;;;;;13.81;100.00;101926.75;5031539;28;20140;-70
2023/05/23 02:28:13;;;;;;;30.08;19.23;;;;;;;13.80;100.00;101935.53;5032518;28;20488;-70
2023/05/23 02:30:38;;;;;;;27.98;17.58;;;;;;;13.72;100.00;101924.31;5032165;28;20026;-71
2023/05/23 02:33:05;;;;;;;28.70;17.80;;;;;;;13.72;100.00;101936.56;5031974;28;20521;-70
2023/05/23 02:35:31;;;;;;;29.75;16.65;;;;;;;13.63;100.00;101929.72;5032299;28;20036;-70
2023/05/23 02:37:56;;;;;;;34.65;18.42;;;;;;;13.60;100.00;101932.41;5032193;28;20033;-70
2023/05/23 02:40:21;;;;;;;27.42;17.23;;;;;;;13.58;100.00;101929.81;5031762;28;20075;-70
2023/05/23 02:42:47;;;;;;;29.05;17.77;;;;;;;13.56;100.00;101928.09;5032339;28;20036;-70
2023/05/23 02:45:12;;;;;;;31.55;17.83;;;;;;;13.59;100.00;101920.19;5032105;28;20091;-70
2023/05/23 02:47:37;;;;;;;26.83;16.95;;;;;;;13.54;100.00;101917.66;5031444;28;20022;-70
2023/05/23 02:50:03;;;;;;;28.40;16.30;;;;;;;13.56;100.00;101912.38;5032255;28;20021;-70
2023/05/23 02:52:29;;;;;;;25.98;15.73;;;;;;;13.70;100.00;101931.34;5032098;28;20458;-70
2023/05/23 02:54:54;;;;;;;27.17;15.55;;;;;;;13.69;100.00;101937.47;5031220;28;20079;-71
2023/05/23 02:57:19;;;;;;;21.33;14.60;;;;;;;13.69;100.00;101928.75;5034197;28;20034;-70
2023/05/23 02:59:44;;;;;;;18.98;13.02;;;;;;;13.69;100.00;101921.75;5036060;28;20384;-71
2023/05/23 03:02:10;;;;;;;24.05;13.93;;;;;;;13.69;100.00;101924.38;5035460;28;20029;-70
2023/05/23 03:04:36;;;;;;;20.30;12.05;;;;;;;13.62;100.00;101919.28;5036208;28;20029;-71
2023/05/23 03:07:02;;;;;;;21.95;11.38;;;;;;;13.59;100.00;101907.09;5036392;28;20274;-70
2023/05/23 03:09:27;;;;;;;18.85;11.05;;;;;;;13.61;100.00;101925.41;5043823;28;20025;-70
2023/05/23 03:11:53;;;;;;;14.55;10.55;;;;;;;13.64;100.00;101930.59;5046804;28;20029;-71
2023/05/23 03:14:18;;;;;;;16.55;10.13;;;;;;;13.63;100.00;101921.84;5034265;28;20469;-70
2023/05/23 03:16:44;;;;;;;16.38;10.25;;;;;;;13.61;100.00;101923.66;5035199;28;20117;-71
2023/05/23 03:19:09;;;;;;;15.57;9.60;;;;;;;13.57;100.00;101919.38;5036076;28;20023;-70
2023/05/23 03:21:35;;;;;;;12.48;8.55;;;;;;;13.59;100.00;101930.69;5036189;28;20476;-70
2023/05/23 03:24:00;;;;;;;11.48;8.35;;;;;;;13.57;100.00;101937.72;5036792;28;20072;-70
2023/05/23 03:26:26;;;;;;;14.95;8.63;;;;;;;13.54;100.00;101932.53;5035184;28;20033;-70
2023/05/23 03:28:51;;;;;;;13.85;8.32;;;;;;;13.50;100.00;101931.69;5033649;28;20030;-70
2023/05/23 03:31:17;;;;;;;11.77;7.57;;;;;;;13.49;100.00;101935.22;5036045;28;20025;-70
2023/05/23 03:33:42;;;;;;;10.00;7.97;;;;;;;13.53;100.00;101949.13;5035791;28;20029;-70
2023/05/23 03:36:07;;;;;;;11.70;8.10;;;;;;;13.56;100.00;101942.06;5035016;28;20706;-70
2023/05/23 03:38:33;;;;;;;8.27;7.22;;;;;;;13.52;100.00;101931.69;5037878;28;20040;-71
2023/05/23 03:40:58;;;;;;;17.52;8.23;;;;;;;13.58;100.00;101944.69;5047640;28;20504;-71
2023/05/23 03:43:24;;;;;;;12.40;7.45;;;;;;;13.50;100.00;101933.47;5033449;28;20026;-70
2023/05/23 03:45:49;;;;;;;12.68;7.70;;;;;;;13.50;100.00;101928.22;5024454;28;20060;-71
2023/05/23 03:48:15;;;;;;;11.38;7.80;;;;;;;13.55;100.00;101931.63;5035589;28;20037;-70
2023/05/23 03:50:40;;;;;;;12.43;7.85;;;;;;;13.61;100.00;101949.88;5034705;28;20473;-71
2023/05/23 03:53:06;;;;;;;11.15;8.02;;;;;;;13.62;100.00;101941.09;5035047;28;20021;-71
2023/05/23 03:55:31;;;;;;;13.93;9.35;;;;;;;13.62;100.00;101946.34;5048950;28;20017;-70
2023/05/23 03:57:57;;;;;;;11.80;8.23;;;;;;;13.63;100.00;101940.19;5041089;28;20104;-70
2023/05/23 04:00:22;;;;;;;15.93;9.02;;;;;;;13.62;100.00;101941.09;5033451;28;20017;-70
2023/05/23 04:02:48;;;;;;;13.15;9.38;;;;;;;13.64;100.00;101952.44;5034811;28;20571;-71
2023/05/23 04:05:14;;;;;;;15.35;9.65;;;;;;;13.61;100.00;101954.25;5034476;28;20029;-70
2023/05/23 04:07:40;;;;;;;12.65;8.82;;;;;;;13.57;100.00;101954.31;5029054;28;20017;-70
2023/05/23 04:10:06;;;;;;;14.50;9.07;;;;;;;13.58;100.00;101956.00;5034417;28;20075;-70
2023/05/23 04:12:32;;;;;;;15.95;9.63;;;;;;;13.53;100.00;101954.38;5034633;28;20075;-70
2023/05/23 04:14:57;;;;;;;14.32;9.00;;;;;;;13.59;100.00;101962.13;5035047;28;20120;-70
2023/05/23 04:17:23;;;;;;;14.52;9.02;;;;;;;13.58;100.00;101957.78;5034413;28;20025;-70
2023/05/23 04:19:49;;;;;;;14.40;8.75;;;;;;;13.62;100.00;101964.69;5034173;28;20030;-70
2023/05/23 04:22:15;;;;;;;14.35;8.65;;;;;;;13.64;100.00;101962.91;5034884;28;20032;-70
2023/05/23 04:24:40;;;;;;;15.07;8.13;;;;;;;13.64;100.00;101955.06;5034807;28;20026;-70
2023/05/23 04:27:06;;;;;;;11.38;8.30;;;;;;;13.67;100.00;101964.59;5033929;28;20474;-70
2023/05/23 04:29:32;;;;;;;17.08;9.00;;;;;;;13.69;100.00;101974.16;5034650;28;20079;-70
2023/05/23 04:31:57;;;;;;;15.07;8.90;;;;;;;13.70;100.00;101972.41;5034588;28;20038;-70
2023/05/23 04:34:22;;;;;;;14.75;9.65;;;;;;;13.70;100.00;101975.91;5033785;28;20014;-70
2023/05/23 04:36:48;;;;;;;15.02;10.10;;;;;;;13.74;100.00;101974.09;5034546;28;20061;-71
2023/05/23 04:39:14;;;;;;;17.20;10.05;;;;;;;13.71;100.00;101980.25;5033661;28;20017;-70
2023/05/23 04:41:41;;;;;;;18.52;10.25;;;;;;;13.68;100.00;101985.53;5034337;28;20024;-71
2023/05/23 04:44:08;;;;;;;22.33;10.77;;;;;;;13.71;100.00;101979.38;5034593;28;20025;-70
2023/05/23 04:46:35;;;;;;;20.65;10.57;;;;;;;13.71;100.00;101971.53;5033482;28;20053;-70
2023/05/23 04:49:01;;;;;;;22.00;10.68;;;;;;;13.70;100.00;101967.16;5034066;28;20026;-70
2023/05/23 04:51:26;;;;;;;20.05;11.07;;;;;;;13.74;100.00;101988.06;5034095;28;20018;-70
2023/05/23 04:53:51;;;;;;;20.50;10.93;;;;;;;13.67;100.00;101981.19;5033234;28;20033;-70
2023/05/23 04:56:19;;;;;;;22.88;11.52;;;;;;;13.68;100.00;101988.16;5034175;28;20029;-70
2023/05/23 04:58:45;;;;;;;23.92;12.07;;;;;;;13.70;100.00;101988.13;5033695;28;20469;-70
2023/05/23 05:01:10;;;;;;;21.92;12.13;;;;;;;13.71;100.00;101993.34;5033713;28;20079;-70
2023/05/23 05:03:36;;;;;;;26.05;12.02;;;;;;;13.74;100.00;102002.91;5033966;28;20025;-70
2023/05/23 05:06:01;;;;;;;21.55;11.88;;;;;;;13.70;100.00;102003.84;5037102;28;20025;-71
2023/05/23 05:08:27;;;;;;;27.33;11.95;;;;;;;13.65;100.00;102005.69;5035796;28;20025;-70
2023/05/23 05:10:53;;;;;;;25.50;12.77;;;;;;;13.67;100.00;102006.50;5033907;28;20053;-70
2023/05/23 05:13:18;;;;;;;30.83;12.85;;;;;;;13.66;100.00;102015.28;5032099;28;20495;-70
2023/05/23 05:15:44;;;;;;;25.88;12.40;;;;;;;13.61;100.00;101998.78;5032864;28;20112;-70
2023/05/23 05:18:10;;;;;;;28.77;11.88;;;;;;;13.69;100.00;102016.09;5033685;28;20070;-71
2023/05/23 05:20:36;;;;;;;34.47;12.93;;;;;;;13.69;100.00;102016.09;5033416;28;20025;-70
2023/05/23 05:23:01;;;;;;;25.85;12.27;;;;;;;13.63;100.00;102018.81;5032679;28;20388;-70
2023/05/23 05:25:30;;;;;;;27.10;12.90;;;;;;;13.62;100.00;102016.22;5033732;28;20029;-70
2023/05/23 05:27:56;;;;;;;26.77;13.20;;;;;;;13.51;100.00;102026.91;5033226;28;20017;-70
2023/05/23 05:30:21;;;;;;;32.85;13.20;;;;;;;13.41;100.00;102020.09;5033191;28;20021;-71
2023/05/23 05:32:47;;;;;;;34.22;13.68;;;;;;;13.40;100.00;102019.19;5033193;28;20029;-70
2023/05/23 05:35:12;;;;;;;30.42;13.93;;;;;;;13.32;100.00;102023.72;5033703;28;20033;-70
2023/05/23 05:37:38;;;;;;;32.88;14.07;;;;;;;13.40;100.00;102027.06;5032521;28;20377;-70
2023/05/23 05:40:07;;;;;;;30.33;13.55;;;;;;;13.32;100.00;102029.81;5033307;28;20025;-70
2023/05/23 05:42:32;;;;;;;28.35;12.52;;;;;;;13.32;100.00;102032.44;5032385;28;20514;-70
2023/05/23 05:44:58;;;;;;;30.83;13.10;;;;;;;13.26;100.00;102034.28;5033130;28;20052;-70
2023/05/23 05:47:23;;;;;;;25.85;11.13;;;;;;;13.29;100.00;102042.09;5033071;28;20128;-70
2023/05/23 05:49:48;;;;;;;29.65;12.57;;;;;;;13.27;100.00;102049.94;5032304;28;20428;-71
2023/05/23 05:52:13;;;;;;;33.55;10.80;;;;;;;13.25;100.00;102040.41;5033540;28;20100;-70
2023/05/23 05:54:39;;;;;;;27.45;10.95;;;;;;;13.18;100.00;102044.84;5032741;28;20536;-71
2023/05/23 05:57:04;;;;;;;24.65;10.63;;;;;;;13.20;100.00;102055.28;5032190;28;20028;-70
2023/05/23 05:59:30;;;;;;;29.58;11.05;;;;;;;13.25;100.00;102054.38;5033078;28;20030;-71
2023/05/23 06:01:55;;;;;;;24.55;10.40;;;;;;;13.22;100.00;102057.00;5032540;28;20021;-70
2023/05/23 06:04:20;;;;;;;22.77;10.48;;;;;;;13.24;100.00;102064.81;5032514;28;20033;-70
2023/05/23 06:06:46;;;;;;;25.50;10.20;;;;;;;13.15;100.00;102049.28;5032554;28;20029;-70
2023/05/23 06:09:11;;;;;;;24.05;9.95;;;;;;;13.11;100.00;102048.41;5032598;28;20351;-70
2023/05/23 06:11:39;;;;;;;27.52;10.05;;;;;;;13.18;100.00;102068.41;5032140;28;20029;-71
2023/05/23 06:14:08;;;;;;;21.25;9.35;;;;;;;13.11;100.00;102058.91;5032986;28;20021;-70
2023/05/23 06:16:33;;;;;;;20.73;9.63;;;;;;;13.05;100.00;102072.09;5032720;28;20021;-70
2023/05/23 06:18:59;;;;;;;25.58;9.20;;;;;;;13.04;100.00;102075.59;5031523;28;20029;-70
2023/05/23 06:21:24;;;;;;;22.48;9.40;;;;;;;13.04;100.00;102078.19;5043606;28;20025;-70
2023/05/23 06:23:49;;;;;;;18.40;8.45;;;;;;;13.00;100.00;102076.53;5036932;28;20021;-70
2023/05/23 06:26:15;;;;;;;17.25;8.10;;;;;;;13.01;100.00;102083.47;5020269;28;20028;-70
2023/05/23 06:28:40;;;;;;;13.98;7.68;;;;;;;12.96;100.00;102088.78;5030744;28;20382;-70
2023/05/23 06:31:08;;;;;;;15.43;6.80;;;;;;;12.98;100.00;102084.41;5032188;28;20465;-70
2023/05/23 06:33:34;;;;;;;13.82;6.60;;;;;;;13.03;100.00;102076.47;5030783;28;20037;-70
2023/05/23 06:35:59;;;;;;;15.13;6.65;;;;;;;13.09;100.00;102094.72;5032397;28;20024;-70
2023/05/23 06:38:26;;;;;;;13.75;6.20;;;;;;;13.06;100.00;102090.38;5032244;28;20025;-71
2023/05/23 06:40:51;;;;;;;10.80;6.28;;;;;;;13.03;100.00;102098.28;5031582;28;20079;-70
2023/05/23 06:43:16;;;;;;;16.33;6.70;;;;;;;13.08;100.00;102091.25;5031355;28;20100;-70
2023/05/23 06:45:45;;;;;;;12.77;6.30;;;;;;;13.09;100.00;102095.59;5031459;28;20033;-70
2023/05/23 06:48:10;;;;;;;15.10;6.18;;;;;;;13.16;100.00;102105.97;5038101;28;20392;-70
2023/05/23 06:50:36;;;;;;;17.33;6.57;;;;;;;12.96;100.00;102083.56;5039488;28;20017;-70
2023/05/23 06:53:01;;;;;;;12.98;6.25;;;;;;;13.07;100.00;102109.56;5031202;28;20088;-70
2023/05/23 06:55:27;;;;;;;14.13;6.80;;;;;;;12.89;100.00;102095.00;5042468;28;20410;-70
2023/05/23 06:57:52;;;;;;;14.80;7.05;;;;;;;12.96;100.00;102114.09;5030058;28;20025;-70
2023/05/23 07:00:18;;;;;;;16.73;7.05;;;;;;;13.00;100.00;102131.50;5031422;28;20105;-70
2023/05/23 07:02:47;;;;;;;13.18;6.97;;;;;;;12.87;100.00;102141.25;5030338;28;20040;-71
2023/05/23 07:05:13;;;;;;;15.30;6.68;;;;;;;12.87;100.00;102139.50;5029495;28;20037;-71
2023/05/23 07:07:38;;;;;;;13.93;7.03;;;;;;;12.87;100.00;102134.25;5030009;28;20100;-71
2023/05/23 07:10:04;;;;;;;12.68;6.03;;;;;;;12.92;100.00;102128.13;5026733;28;20374;-70
2023/05/23 07:12:29;;;;;;;15.20;6.25;;;;;;;12.95;100.00;102134.19;5033970;28;20036;-70
2023/05/23 07:14:55;;;;;;;16.08;6.93;;;;;;;13.03;100.00;102136.69;5038149;28;20064;-71
2023/05/23 07:17:20;;;;;;;14.32;5.93;;;;;;;13.11;100.00;102134.81;5029226;28;20056;-71
2023/05/23 07:19:45;;;;;;;15.90;6.68;;;;;;;13.18;100.00;102139.13;5029495;28;20385;-71
2023/05/23 07:22:10;;;;;;;17.67;6.35;;;;;;;13.27;100.00;102139.00;5030046;28;20065;-71
2023/05/23 07:24:36;;;;;;;11.65;5.63;;;;;;;13.35;98.24;102125.81;5031646;28;20377;-71
2023/05/23 07:27:02;;;;;;;16.00;6.10;;;;;;;13.61;97.13;102143.75;5027917;28;20038;-71
2023/05/23 07:29:27;;;;;;;11.85;5.97;;;;;;;13.93;96.82;102144.97;5030927;28;20363;-71
2023/05/23 07:31:52;;;;;;;11.63;5.53;;;;;;;14.14;92.63;102143.78;5030615;28;20037;-71
2023/05/23 07:34:18;;;;;;;13.25;5.90;;;;;;;14.29;87.55;102138.25;5030967;28;20465;-71
2023/05/23 07:36:43;;;;;;;17.33;5.50;;;;;;;14.27;87.03;102143.50;5029124;28;20034;-72
2023/05/23 07:39:09;;;;;;;16.27;5.85;;;;;;;14.50;86.38;102156.25;5031806;28;20025;-71
2023/05/23 07:41:35;;;;;;;11.18;5.70;;;;;;;14.57;81.27;102149.13;5028514;28;20060;-71
2023/05/23 07:44:00;;;;;;;10.70;5.30;;;;;;;14.58;81.40;102132.47;5029602;28;20021;-71
2023/05/23 07:46:25;;;;;;;15.32;5.88;;;;;;;14.63;77.56;102140.25;5031377;28;20496;-72
2023/05/23 07:48:51;;;;;;;11.27;4.82;;;;;;;14.63;79.41;102153.38;5035227;28;20029;-71
2023/05/23 07:51:20;;;;;;;14.70;5.93;;;;;;;14.61;79.30;102132.41;5039116;28;20079;-71
2023/05/23 07:53:45;;;;;;;13.50;6.18;;;;;;;14.85;78.32;102153.84;5032065;28;20477;-71
2023/05/23 07:56:10;;;;;;;15.15;5.72;;;;;;;14.96;76.09;102160.56;5034488;28;20037;-71
2023/05/23 07:58:35;;;;;;;14.10;6.40;;;;;;;14.95;76.92;102164.09;5035222;28;20021;-71
2023/05/23 08:01:02;;;;;;;14.65;6.13;;;;;;;14.84;77.64;102165.22;5033459;28;20044;-71
2023/05/23 08:03:27;;;;;;;14.73;6.57;;;;;;;14.63;79.37;102159.50;5033710;28;20032;-71
2023/05/23 08:05:53;;;;;;;14.52;6.53;;;;;;;14.66;77.54;102169.06;5034298;28;20033;-71
2023/05/23 08:08:18;;;;;;;15.05;6.35;;;;;;;14.72;79.42;102161.09;5032227;28;20028;-71
2023/05/23 08:10:44;;;;;;;11.85;6.00;;;;;;;14.92;78.96;102163.31;5031763;28;20053;-71
2023/05/23 08:13:09;;;;;;;15.07;6.03;;;;;;;15.05;79.78;102183.16;5032467;28;20025;-71
2023/05/23 08:15:38;;;;;;;14.52;6.13;;;;;;;15.03;75.77;102181.47;5037378;28;20117;-71
2023/05/23 08:18:04;;;;;;;14.82;6.85;;;;;;;15.04;75.96;102178.81;5030095;28;20041;-70
2023/05/23 08:20:29;;;;;;;14.10;6.10;;;;;;;15.09;77.64;102186.59;5035704;28;20025;-70
2023/05/23 08:23:01;;;;;;;13.02;6.10;;;;;;;15.32;76.56;102184.31;5045345;28;20040;-70
2023/05/23 08:25:30;;;;;;;11.50;6.47;;;;;;;15.45;74.72;102177.03;5034001;28;20088;-70
2023/05/23 08:27:57;;;;;;;17.20;6.57;;;;;;;15.62;75.04;102181.91;5031918;28;20375;-71
2023/05/23 08:30:24;;;;;;;12.65;5.82;;;;;;;15.65;73.90;102169.56;5051107;28;20104;-71
2023/05/23 08:32:50;;;;;;;13.98;5.65;;;;;;;15.61;71.95;102186.31;5034794;28;20040;-71
2023/05/23 08:35:16;;;;;;;11.52;5.07;;;;;;;15.46;73.23;102186.63;5034484;28;20427;-71
2023/05/23 08:37:41;;;;;;;10.32;5.45;;;;;;;15.38;73.81;102188.59;5033236;28;20029;-70
2023/05/23 08:40:17;;;;;;;11.02;5.25;;;;;;;15.39;73.48;102177.16;5033994;28;20108;-70
2023/05/23 08:42:42;;;;;;;12.50;5.53;;;;;;;15.45;74.98;102190.19;5044720;28;20017;-71
2023/05/23 08:45:08;;;;;;;11.45;5.50;;;;;;;15.39;72.75;102187.69;5032120;28;20052;-70
2023/05/23 08:47:41;;;;;;;15.15;6.13;;;;;;;15.21;74.51;102189.81;5028882;28;20073;-71
2023/05/23 08:50:07;;;;;;;16.63;5.82;;;;;;;15.20;75.80;102189.84;5034012;28;20076;-71
2023/05/23 08:52:36;;;;;;;16.98;5.63;;;;;;;15.30;75.30;102187.88;5031211;28;20491;-70
2023/05/23 08:55:02;;;;;;;16.85;5.88;;;;;;;15.53;76.20;102190.88;5036366;28;20041;-71
2023/05/23 08:57:29;;;;;;;12.63;5.70;;;;;;;15.65;76.06;102192.34;5032934;28;20489;-71
2023/05/23 08:59:54;;;;;;;10.82;5.18;;;;;;;15.77;75.94;102204.41;5033111;28;20384;-71
2023/05/23 09:02:21;;;;;;;11.40;5.90;;;;;;;16.05;74.07;102202.81;5031796;28;20116;-71
2023/05/23 09:04:46;;;;;;;12.38;5.15;;;;;;;16.17;76.10;102203.41;5034188;28;20551;-71
2023/05/23 09:07:15;;;;;;;10.93;4.25;;;;;;;16.45;71.04;102203.56;5032938;28;20021;-71
2023/05/23 09:09:41;;;;;;;8.20;4.38;;;;;;;16.37;73.15;102206.41;5027951;28;20030;-71
2023/05/23 09:12:06;;;;;;;9.63;4.72;;;;;;;16.53;74.82;102207.72;5031360;28;20488;-71
2023/05/23 09:14:32;;;;;;;11.07;3.92;;;;;;;16.59;72.91;102204.06;5033342;28;20018;-71
2023/05/23 09:17:01;;;;;;;10.38;4.43;;;;;;;16.66;73.30;102203.00;5033297;28;20029;-71
2023/05/23 09:19:27;;;;;;;11.82;4.85;;;;;;;16.65;68.45;102198.66;5034123;28;20417;-71
2023/05/23 09:21:53;;;;;;;10.43;4.93;;;;;;;16.49;70.36;102216.63;5032968;28;20029;-71
2023/05/23 09:24:19;;;;;;;11.05;4.53;;;;;;;16.13;71.68;102218.41;5033710;28;20104;-71
2023/05/23 09:26:48;;;;;;;11.15;4.80;;;;;;;15.95;73.68;102218.84;5033558;28;20117;-71
2023/05/23 09:29:13;;;;;;;14.70;4.85;;;;;;;15.96;74.14;102215.31;5032896;28;20025;-70
2023/05/23 09:31:39;;;;;;;9.88;3.55;;;;;;;15.74;71.97;102204.47;5033596;28;20037;-71
2023/05/23 09:34:05;;;;;;;11.45;4.00;;;;;;;15.86;73.27;102230.47;5033595;28;20078;-71
2023/05/23 09:36:33;;;;;;;13.98;4.00;;;;;;;16.01;73.44;102218.72;5032866;28;20028;-71
2023/05/23 09:39:03;;;;;;;11.60;3.70;;;;;;;16.33;71.33;102216.13;5033247;28;20025;-71
2023/05/23 09:41:30;;;;;;;11.30;3.60;;;;;;;16.61;69.20;102218.94;5033629;28;20032;-71
2023/05/23 09:43:55;;;;;;;12.18;3.83;;;;;;;16.59;68.18;102197.03;5032728;28;20022;-71
2023/05/23 09:46:21;;;;;;;15.80;3.88;;;;;;;16.61;66.57;102232.09;5032933;28;20063;-71
2023/05/23 09:48:50;;;;;;;11.75;3.10;;;;;;;16.43;62.50;102229.06;5032437;28;20136;-71
2023/05/23 09:51:17;;;;;;;12.52;3.38;;;;;;;16.27;62.16;102229.44;5033317;28;20034;-71
2023/05/23 09:53:43;;;;;;;9.80;3.15;;;;;;;16.26;61.05;102214.56;5033136;28;20041;-71
2023/05/23 09:56:10;;;;;;;13.65;3.10;;;;;;;16.50;60.66;102223.59;5032506;28;20107;-70
2023/05/23 09:58:38;;;;;;;10.82;3.22;;;;;;;16.78;60.16;102218.50;5032729;28;20507;-70
2023/05/23 10:01:08;;;;;;;10.13;3.00;;;;;;;17.01;60.13;102220.50;5033248;28;20116;-71
2023/05/23 10:03:39;;;;;;;9.05;2.97;;;;;;;17.02;61.68;102209.03;5032302;28;20469;-71
2023/05/23 10:06:11;;;;;;;11.52;3.22;;;;;;;17.05;60.73;102226.53;5032406;28;20030;-71
2023/05/23 10:08:42;;;;;;;10.43;3.65;;;;;;;17.07;63.14;102224.72;5032549;28;20108;-71
2023/05/23 10:11:15;;;;;;;9.90;3.50;;;;;;;17.15;59.40;102228.00;5032429;28;20061;-71
2023/05/23 10:13:43;;;;;;;11.53;3.03;;;;;;;17.19;58.07;102228.75;5032735;28;20034;-71
2023/05/23 10:16:21;;;;;;;12.13;3.10;;;;;;;17.53;55.92;102226.84;5032721;28;20631;-70
2023/05/23 10:18:51;;;;;;;11.43;3.40;;;;;;;17.75;56.33;102220.91;5031538;28;20037;-71
2023/05/23 10:21:23;;;;;;;11.50;2.88;;;;;;;17.92;55.90;102210.72;5030292;28;20113;-71
2023/05/23 10:23:49;;;;;;;11.88;3.72;;;;;;;18.55;57.98;102207.72;5033222;28;20028;-71
2023/05/23 10:26:16;;;;;;;10.60;2.92;;;;;;;18.77;53.60;102205.19;5032650;28;20368;-71
2023/05/23 10:28:42;;;;;;;9.13;2.95;;;;;;;18.77;50.36;102219.28;5037612;28;20102;-72
2023/05/23 10:31:09;;;;;;;14.57;3.50;;;;;;;18.80;54.84;102226.22;5026798;28;20075;-71
2023/05/23 10:33:42;;;;;;;13.25;3.05;;;;;;;18.74;51.18;102216.75;5030969;28;20357;-71
2023/05/23 10:36:13;;;;;;;9.88;3.20;;;;;;;18.57;53.82;102219.09;5032268;28;20508;-71
2023/05/23 10:39:12;;;;;;;12.30;3.28;;;;;;;18.73;52.38;102219.44;5027984;28;20117;-71
2023/05/23 10:41:43;;;;;;;8.68;3.80;;;;;;;18.47;51.93;102229.09;5027243;28;20038;-71
2023/05/23 10:44:16;;;;;;;13.02;3.65;;;;;;;18.29;53.40;102222.69;5031232;28;20033;-71
2023/05/23 10:46:56;;;;;;;11.93;3.40;;;;;;;18.78;54.80;102217.50;5030192;28;20049;-71
2023/05/23 10:49:43;;;;;;;10.73;3.42;;;;;;;18.87;51.63;102218.03;5031845;28;20037;-71
2023/05/23 10:52:12;;;;;;;9.20;3.22;;;;;;;18.91;51.15;102217.00;5048161;28;20096;-71
2023/05/23 10:54:42;;;;;;;10.30;3.33;;;;;;;18.83;50.98;102215.53;5037467;28;20022;-71
2023/05/23 10:57:10;;;;;;;12.95;3.47;;;;;;;18.51;48.36;102224.56;5040706;28;20069;-71
2023/05/23 10:59:37;;;;;;;9.40;3.70;;;;;;;18.27;50.74;102223.66;5028428;28;20065;-71
2023/05/23 11:02:06;;;;;;;14.35;3.75;;;;;;;18.36;50.52;102218.06;5031636;28;20167;-71
2023/05/23 11:04:31;;;;;;;10.73;3.40;;;;;;;18.44;49.80;102235.38;5029354;28;20037;-71
2023/05/23 11:06:57;;;;;;;12.90;3.75;;;;;;;18.33;50.40;102221.66;5030456;28;20436;-70